sensor_id;sensor_type;location;lat;lon;timestamp;P1;durP1;ratioP1;P2;durP2;ratioP2
74100;SDS011;62462;52.530;21.682;2022-10-16T00:01:11;22.85;;;14.23;;
74100;SDS011;62462;52.530;21.682;2022-10-16T00:03:39;26.23;;;14.05;;
74100;SDS011;62462;52.530;21.682;2022-10-16T00:06:06;23.50;;;13.60;;
74100;SDS011;62462;52.530;21.682;2022-10-16T00:08:33;19.27;;;13.30;;
74100;SDS011;62462;52.530;21.682;2022-10-16T00:11:04;22.52;;;13.65;;
74100;SDS011;62462;52.530;21.682;2022-10-16T00:13:35;20.80;;;13.57;;
74100;SDS011;62462;52.530;21.682;2022-10-16T00:16:02;20.83;;;13.50;;
74100;SDS011;62462;52.530;21.682;2022-10-16T00:18:28;22.80;;;14.20;;
74100;SDS011;62462;52.530;21.682;2022-10-16T00:20:55;21.45;;;13.00;;
74100;SDS011;62462;52.530;21.682;2022-10-16T00:23:26;22.05;;;13.25;;
74100;SDS011;62462;52.530;21.682;2022-10-16T00:25:55;20.55;;;14.60;;
74100;SDS011;62462;52.530;21.682;2022-10-16T00:28:25;19.98;;;12.90;;
74100;SDS011;62462;52.530;21.682;2022-10-16T00:30:51;20.38;;;12.73;;
74100;SDS011;62462;52.530;21.682;2022-10-16T00:33:17;22.13;;;13.65;;
74100;SDS011;62462;52.530;21.682;2022-10-16T00:35:43;22.73;;;14.70;;
74100;SDS011;62462;52.530;21.682;2022-10-16T00:38:09;21.20;;;13.57;;
74100;SDS011;62462;52.530;21.682;2022-10-16T00:40:35;19.85;;;12.98;;
74100;SDS011;62462;52.530;21.682;2022-10-16T00:43:00;20.38;;;13.15;;
74100;SDS011;62462;52.530;21.682;2022-10-16T00:45:26;19.83;;;13.07;;
74100;SDS011;62462;52.530;21.682;2022-10-16T00:47:52;21.63;;;13.43;;
74100;SDS011;62462;52.530;21.682;2022-10-16T00:52:52;20.83;;;14.02;;
74100;SDS011;62462;52.530;21.682;2022-10-16T00:55:19;21.30;;;14.45;;
74100;SDS011;62462;52.530;21.682;2022-10-16T00:57:46;23.90;;;14.07;;
74100;SDS011;62462;52.530;21.682;2022-10-16T01:00:14;22.17;;;14.13;;
74100;SDS011;62462;52.530;21.682;2022-10-16T01:02:44;19.50;;;13.68;;
74100;SDS011;62462;52.530;21.682;2022-10-16T01:05:16;20.88;;;13.25;;
74100;SDS011;62462;52.530;21.682;2022-10-16T01:10:40;22.97;;;14.13;;
74100;SDS011;62462;52.530;21.682;2022-10-16T01:13:11;22.35;;;13.65;;
74100;SDS011;62462;52.530;21.682;2022-10-16T01:20:45;23.58;;;15.23;;
74100;SDS011;62462;52.530;21.682;2022-10-16T01:29:13;21.05;;;14.55;;
74100;SDS011;62462;52.530;21.682;2022-10-16T01:31:46;22.25;;;14.80;;
74100;SDS011;62462;52.530;21.682;2022-10-16T01:34:17;24.63;;;15.77;;
74100;SDS011;62462;52.530;21.682;2022-10-16T01:36:58;22.33;;;14.98;;
74100;SDS011;62462;52.530;21.682;2022-10-16T01:39:33;24.75;;;14.60;;
74100;SDS011;62462;52.530;21.682;2022-10-16T01:44:39;23.63;;;14.13;;
74100;SDS011;62462;52.530;21.682;2022-10-16T01:47:08;23.70;;;14.70;;
74100;SDS011;62462;52.530;21.682;2022-10-16T01:49:36;24.42;;;15.05;;
74100;SDS011;62462;52.530;21.682;2022-10-16T01:52:05;23.90;;;14.02;;
74100;SDS011;62462;52.530;21.682;2022-10-16T01:54:35;20.00;;;14.02;;
74100;SDS011;62462;52.530;21.682;2022-10-16T01:57:03;22.38;;;13.95;;
74100;SDS011;62462;52.530;21.682;2022-10-16T01:59:31;19.92;;;14.15;;
74100;SDS011;62462;52.530;21.682;2022-10-16T02:02:01;22.48;;;14.40;;
74100;SDS011;62462;52.530;21.682;2022-10-16T02:04:34;19.75;;;13.57;;
74100;SDS011;62462;52.530;21.682;2022-10-16T02:07:04;22.35;;;13.75;;
74100;SDS011;62462;52.530;21.682;2022-10-16T02:09:32;22.55;;;14.13;;
74100;SDS011;62462;52.530;21.682;2022-10-16T02:11:59;19.65;;;13.95;;
74100;SDS011;62462;52.530;21.682;2022-10-16T02:14:31;27.90;;;15.10;;
74100;SDS011;62462;52.530;21.682;2022-10-16T02:16:57;23.02;;;13.20;;
74100;SDS011;62462;52.530;21.682;2022-10-16T02:19:23;19.80;;;14.15;;
74100;SDS011;62462;52.530;21.682;2022-10-16T02:22:00;27.25;;;14.45;;
74100;SDS011;62462;52.530;21.682;2022-10-16T02:27:20;22.08;;;14.95;;
74100;SDS011;62462;52.530;21.682;2022-10-16T02:32:52;22.08;;;14.07;;
74100;SDS011;62462;52.530;21.682;2022-10-16T02:35:20;22.70;;;15.10;;
74100;SDS011;62462;52.530;21.682;2022-10-16T02:37:47;24.80;;;14.95;;
74100;SDS011;62462;52.530;21.682;2022-10-16T02:40:15;18.85;;;13.35;;
74100;SDS011;62462;52.530;21.682;2022-10-16T02:42:42;24.55;;;15.70;;
74100;SDS011;62462;52.530;21.682;2022-10-16T02:45:08;21.80;;;15.07;;
74100;SDS011;62462;52.530;21.682;2022-10-16T02:47:35;24.35;;;15.75;;
74100;SDS011;62462;52.530;21.682;2022-10-16T02:50:01;21.63;;;14.82;;
74100;SDS011;62462;52.530;21.682;2022-10-16T02:52:26;22.25;;;14.65;;
74100;SDS011;62462;52.530;21.682;2022-10-16T02:54:52;26.85;;;15.95;;
74100;SDS011;62462;52.530;21.682;2022-10-16T02:57:18;30.33;;;17.52;;
74100;SDS011;62462;52.530;21.682;2022-10-16T02:59:44;30.33;;;16.63;;
74100;SDS011;62462;52.530;21.682;2022-10-16T03:02:10;26.40;;;16.67;;
74100;SDS011;62462;52.530;21.682;2022-10-16T03:04:36;26.10;;;15.70;;
74100;SDS011;62462;52.530;21.682;2022-10-16T03:07:02;24.70;;;15.77;;
74100;SDS011;62462;52.530;21.682;2022-10-16T03:09:28;25.90;;;15.75;;
74100;SDS011;62462;52.530;21.682;2022-10-16T03:11:53;23.77;;;15.10;;
74100;SDS011;62462;52.530;21.682;2022-10-16T03:14:19;22.95;;;15.52;;
74100;SDS011;62462;52.530;21.682;2022-10-16T03:16:45;24.63;;;15.73;;
74100;SDS011;62462;52.530;21.682;2022-10-16T03:19:11;25.95;;;16.15;;
74100;SDS011;62462;52.530;21.682;2022-10-16T03:21:36;24.98;;;15.50;;
74100;SDS011;62462;52.530;21.682;2022-10-16T03:24:02;22.48;;;14.77;;
74100;SDS011;62462;52.530;21.682;2022-10-16T03:26:28;23.25;;;15.05;;
74100;SDS011;62462;52.530;21.682;2022-10-16T03:28:54;24.27;;;15.63;;
74100;SDS011;62462;52.530;21.682;2022-10-16T03:31:19;23.45;;;14.95;;
74100;SDS011;62462;52.530;21.682;2022-10-16T03:33:45;26.23;;;16.27;;
74100;SDS011;62462;52.530;21.682;2022-10-16T03:36:11;27.77;;;16.45;;
74100;SDS011;62462;52.530;21.682;2022-10-16T03:38:36;24.10;;;15.75;;
74100;SDS011;62462;52.530;21.682;2022-10-16T03:41:02;20.02;;;14.85;;
74100;SDS011;62462;52.530;21.682;2022-10-16T03:43:28;21.52;;;14.57;;
74100;SDS011;62462;52.530;21.682;2022-10-16T03:45:54;20.98;;;14.65;;
74100;SDS011;62462;52.530;21.682;2022-10-16T03:48:20;22.75;;;15.35;;
74100;SDS011;62462;52.530;21.682;2022-10-16T03:50:46;21.75;;;15.15;;
74100;SDS011;62462;52.530;21.682;2022-10-16T03:53:13;26.05;;;15.02;;
74100;SDS011;62462;52.530;21.682;2022-10-16T03:55:41;21.83;;;15.07;;
74100;SDS011;62462;52.530;21.682;2022-10-16T03:58:07;24.60;;;15.55;;
74100;SDS011;62462;52.530;21.682;2022-10-16T04:00:33;24.95;;;16.45;;
74100;SDS011;62462;52.530;21.682;2022-10-16T04:02:59;24.95;;;15.07;;
74100;SDS011;62462;52.530;21.682;2022-10-16T04:05:25;23.10;;;15.32;;
74100;SDS011;62462;52.530;21.682;2022-10-16T04:07:51;22.20;;;14.30;;
74100;SDS011;62462;52.530;21.682;2022-10-16T04:10:17;23.45;;;15.35;;
74100;SDS011;62462;52.530;21.682;2022-10-16T04:12:44;21.70;;;14.70;;
74100;SDS011;62462;52.530;21.682;2022-10-16T04:15:09;27.20;;;14.98;;
74100;SDS011;62462;52.530;21.682;2022-10-16T04:17:35;21.98;;;14.05;;
74100;SDS011;62462;52.530;21.682;2022-10-16T04:20:01;22.58;;;14.35;;
74100;SDS011;62462;52.530;21.682;2022-10-16T04:22:27;23.60;;;15.25;;
74100;SDS011;62462;52.530;21.682;2022-10-16T04:24:53;21.95;;;14.68;;
74100;SDS011;62462;52.530;21.682;2022-10-16T04:27:18;27.25;;;14.50;;
74100;SDS011;62462;52.530;21.682;2022-10-16T04:29:44;22.10;;;14.65;;
74100;SDS011;62462;52.530;21.682;2022-10-16T04:32:10;22.52;;;13.90;;
74100;SDS011;62462;52.530;21.682;2022-10-16T04:34:35;20.60;;;14.95;;
74100;SDS011;62462;52.530;21.682;2022-10-16T04:37:04;19.50;;;13.50;;
74100;SDS011;62462;52.530;21.682;2022-10-16T04:39:30;19.58;;;13.65;;
74100;SDS011;62462;52.530;21.682;2022-10-16T04:41:55;24.23;;;13.70;;
74100;SDS011;62462;52.530;21.682;2022-10-16T04:44:21;24.15;;;14.38;;
74100;SDS011;62462;52.530;21.682;2022-10-16T04:46:47;19.85;;;13.77;;
74100;SDS011;62462;52.530;21.682;2022-10-16T04:49:14;23.85;;;14.20;;
74100;SDS011;62462;52.530;21.682;2022-10-16T04:51:40;22.13;;;14.27;;
74100;SDS011;62462;52.530;21.682;2022-10-16T04:54:06;22.38;;;14.18;;
74100;SDS011;62462;52.530;21.682;2022-10-16T04:56:31;22.00;;;13.70;;
74100;SDS011;62462;52.530;21.682;2022-10-16T04:58:57;20.55;;;14.18;;
74100;SDS011;62462;52.530;21.682;2022-10-16T05:01:23;22.48;;;13.15;;
74100;SDS011;62462;52.530;21.682;2022-10-16T05:03:48;19.55;;;13.70;;
74100;SDS011;62462;52.530;21.682;2022-10-16T05:06:14;21.35;;;13.68;;
74100;SDS011;62462;52.530;21.682;2022-10-16T05:08:40;23.42;;;14.10;;
74100;SDS011;62462;52.530;21.682;2022-10-16T05:11:05;22.48;;;14.75;;
74100;SDS011;62462;52.530;21.682;2022-10-16T05:13:31;20.08;;;14.02;;
74100;SDS011;62462;52.530;21.682;2022-10-16T05:15:57;22.02;;;14.25;;
74100;SDS011;62462;52.530;21.682;2022-10-16T05:18:22;22.20;;;13.95;;
74100;SDS011;62462;52.530;21.682;2022-10-16T05:20:48;21.75;;;12.98;;
74100;SDS011;62462;52.530;21.682;2022-10-16T05:23:14;22.95;;;13.80;;
74100;SDS011;62462;52.530;21.682;2022-10-16T05:25:39;20.17;;;14.27;;
74100;SDS011;62462;52.530;21.682;2022-10-16T05:28:05;17.23;;;12.57;;
74100;SDS011;62462;52.530;21.682;2022-10-16T05:30:31;23.60;;;13.13;;
74100;SDS011;62462;52.530;21.682;2022-10-16T05:32:56;23.88;;;13.27;;
74100;SDS011;62462;52.530;21.682;2022-10-16T05:35:22;23.50;;;13.35;;
74100;SDS011;62462;52.530;21.682;2022-10-16T05:37:48;19.20;;;13.23;;
74100;SDS011;62462;52.530;21.682;2022-10-16T05:40:13;20.85;;;13.43;;
74100;SDS011;62462;52.530;21.682;2022-10-16T05:42:39;20.30;;;13.85;;
74100;SDS011;62462;52.530;21.682;2022-10-16T05:45:06;19.45;;;13.35;;
74100;SDS011;62462;52.530;21.682;2022-10-16T05:47:33;20.25;;;13.48;;
74100;SDS011;62462;52.530;21.682;2022-10-16T05:49:59;19.40;;;12.18;;
74100;SDS011;62462;52.530;21.682;2022-10-16T05:52:24;19.98;;;13.93;;
74100;SDS011;62462;52.530;21.682;2022-10-16T05:54:52;19.05;;;12.35;;
74100;SDS011;62462;52.530;21.682;2022-10-16T05:57:17;19.38;;;12.77;;
74100;SDS011;62462;52.530;21.682;2022-10-16T05:59:43;22.13;;;13.20;;
74100;SDS011;62462;52.530;21.682;2022-10-16T06:02:15;19.88;;;13.30;;
74100;SDS011;62462;52.530;21.682;2022-10-16T06:04:41;20.10;;;12.93;;
74100;SDS011;62462;52.530;21.682;2022-10-16T06:07:06;23.10;;;14.18;;
74100;SDS011;62462;52.530;21.682;2022-10-16T06:09:32;20.58;;;13.35;;
74100;SDS011;62462;52.530;21.682;2022-10-16T06:11:58;19.58;;;12.52;;
74100;SDS011;62462;52.530;21.682;2022-10-16T06:14:24;18.10;;;12.52;;
74100;SDS011;62462;52.530;21.682;2022-10-16T06:16:49;19.58;;;12.70;;
74100;SDS011;62462;52.530;21.682;2022-10-16T06:19:15;18.23;;;13.02;;
74100;SDS011;62462;52.530;21.682;2022-10-16T06:21:42;17.92;;;11.98;;
74100;SDS011;62462;52.530;21.682;2022-10-16T06:24:08;20.23;;;12.88;;
74100;SDS011;62462;52.530;21.682;2022-10-16T06:26:34;19.70;;;12.80;;
74100;SDS011;62462;52.530;21.682;2022-10-16T06:29:00;20.20;;;12.68;;
74100;SDS011;62462;52.530;21.682;2022-10-16T06:31:27;17.85;;;11.65;;
74100;SDS011;62462;52.530;21.682;2022-10-16T06:33:56;18.67;;;12.88;;
74100;SDS011;62462;52.530;21.682;2022-10-16T06:36:22;19.95;;;13.45;;
74100;SDS011;62462;52.530;21.682;2022-10-16T06:38:49;21.08;;;12.95;;
74100;SDS011;62462;52.530;21.682;2022-10-16T06:41:16;20.40;;;12.07;;
74100;SDS011;62462;52.530;21.682;2022-10-16T06:43:43;19.98;;;12.77;;
74100;SDS011;62462;52.530;21.682;2022-10-16T06:46:13;18.05;;;11.38;;
74100;SDS011;62462;52.530;21.682;2022-10-16T06:48:41;18.67;;;12.25;;
74100;SDS011;62462;52.530;21.682;2022-10-16T06:51:11;19.33;;;11.82;;
74100;SDS011;62462;52.530;21.682;2022-10-16T06:53:49;16.85;;;11.43;;
74100;SDS011;62462;52.530;21.682;2022-10-16T06:56:17;19.27;;;12.02;;
74100;SDS011;62462;52.530;21.682;2022-10-16T06:58:44;19.35;;;11.85;;
74100;SDS011;62462;52.530;21.682;2022-10-16T07:01:11;16.42;;;12.23;;
74100;SDS011;62462;52.530;21.682;2022-10-16T07:03:39;19.25;;;11.23;;
74100;SDS011;62462;52.530;21.682;2022-10-16T07:06:07;16.60;;;11.40;;
74100;SDS011;62462;52.530;21.682;2022-10-16T07:08:34;14.45;;;10.75;;
74100;SDS011;62462;52.530;21.682;2022-10-16T07:11:03;20.23;;;10.95;;
74100;SDS011;62462;52.530;21.682;2022-10-16T07:13:34;19.13;;;11.20;;
74100;SDS011;62462;52.530;21.682;2022-10-16T07:16:07;17.88;;;10.80;;
74100;SDS011;62462;52.530;21.682;2022-10-16T07:18:35;17.23;;;11.35;;
74100;SDS011;62462;52.530;21.682;2022-10-16T07:21:07;18.80;;;11.25;;
74100;SDS011;62462;52.530;21.682;2022-10-16T07:23:41;14.68;;;10.88;;
74100;SDS011;62462;52.530;21.682;2022-10-16T07:26:07;19.00;;;11.63;;
74100;SDS011;62462;52.530;21.682;2022-10-16T07:28:33;19.77;;;11.35;;
74100;SDS011;62462;52.530;21.682;2022-10-16T07:31:06;18.48;;;12.07;;
74100;SDS011;62462;52.530;21.682;2022-10-16T07:35:59;21.38;;;11.60;;
74100;SDS011;62462;52.530;21.682;2022-10-16T07:38:25;15.57;;;10.73;;
74100;SDS011;62462;52.530;21.682;2022-10-16T07:41:01;16.38;;;10.68;;
74100;SDS011;62462;52.530;21.682;2022-10-16T07:43:28;15.43;;;10.32;;
74100;SDS011;62462;52.530;21.682;2022-10-16T07:45:55;18.52;;;10.95;;
74100;SDS011;62462;52.530;21.682;2022-10-16T07:48:21;15.68;;;10.40;;
74100;SDS011;62462;52.530;21.682;2022-10-16T07:50:48;16.50;;;10.82;;
74100;SDS011;62462;52.530;21.682;2022-10-16T07:53:14;16.77;;;10.38;;
74100;SDS011;62462;52.530;21.682;2022-10-16T07:55:40;14.20;;;10.45;;
74100;SDS011;62462;52.530;21.682;2022-10-16T07:58:06;15.45;;;10.90;;
74100;SDS011;62462;52.530;21.682;2022-10-16T08:00:32;18.63;;;10.10;;
74100;SDS011;62462;52.530;21.682;2022-10-16T08:02:59;14.70;;;9.90;;
74100;SDS011;62462;52.530;21.682;2022-10-16T08:05:28;16.08;;;10.50;;
74100;SDS011;62462;52.530;21.682;2022-10-16T08:07:54;19.98;;;10.60;;
74100;SDS011;62462;52.530;21.682;2022-10-16T08:10:21;15.13;;;10.88;;
74100;SDS011;62462;52.530;21.682;2022-10-16T08:12:49;17.23;;;10.25;;
74100;SDS011;62462;52.530;21.682;2022-10-16T08:15:16;15.50;;;10.23;;
74100;SDS011;62462;52.530;21.682;2022-10-16T08:17:42;17.17;;;10.60;;
74100;SDS011;62462;52.530;21.682;2022-10-16T08:20:08;15.98;;;9.70;;
74100;SDS011;62462;52.530;21.682;2022-10-16T08:22:34;15.77;;;10.73;;
74100;SDS011;62462;52.530;21.682;2022-10-16T08:25:00;17.13;;;11.00;;
74100;SDS011;62462;52.530;21.682;2022-10-16T08:27:30;20.13;;;12.73;;
74100;SDS011;62462;52.530;21.682;2022-10-16T08:29:57;17.25;;;12.00;;
74100;SDS011;62462;52.530;21.682;2022-10-16T08:32:22;15.27;;;10.48;;
74100;SDS011;62462;52.530;21.682;2022-10-16T08:34:48;19.77;;;10.55;;
74100;SDS011;62462;52.530;21.682;2022-10-16T08:37:14;16.40;;;10.25;;
74100;SDS011;62462;52.530;21.682;2022-10-16T08:39:39;23.35;;;12.93;;
74100;SDS011;62462;52.530;21.682;2022-10-16T08:50:25;14.20;;;10.73;;
74100;SDS011;62462;52.530;21.682;2022-10-16T08:52:53;16.98;;;10.60;;
74100;SDS011;62462;52.530;21.682;2022-10-16T08:58:13;13.40;;;9.73;;
74100;SDS011;62462;52.530;21.682;2022-10-16T09:01:00;16.02;;;10.50;;
74100;SDS011;62462;52.530;21.682;2022-10-16T09:03:45;18.60;;;10.50;;
74100;SDS011;62462;52.530;21.682;2022-10-16T09:11:31;15.15;;;10.25;;
74100;SDS011;62462;52.530;21.682;2022-10-16T09:19:46;14.48;;;9.27;;
74100;SDS011;62462;52.530;21.682;2022-10-16T09:22:20;15.18;;;9.45;;
74100;SDS011;62462;52.530;21.682;2022-10-16T09:24:50;15.38;;;9.18;;
74100;SDS011;62462;52.530;21.682;2022-10-16T09:27:16;13.82;;;9.60;;
74100;SDS011;62462;52.530;21.682;2022-10-16T09:29:41;12.00;;;8.80;;
74100;SDS011;62462;52.530;21.682;2022-10-16T09:32:10;16.25;;;9.80;;
74100;SDS011;62462;52.530;21.682;2022-10-16T09:34:40;13.35;;;8.88;;
74100;SDS011;62462;52.530;21.682;2022-10-16T09:37:12;13.02;;;8.77;;
74100;SDS011;62462;52.530;21.682;2022-10-16T09:42:33;14.55;;;9.52;;
74100;SDS011;62462;52.530;21.682;2022-10-16T09:44:59;12.13;;;9.10;;
74100;SDS011;62462;52.530;21.682;2022-10-16T09:47:28;16.77;;;9.55;;
74100;SDS011;62462;52.530;21.682;2022-10-16T09:52:27;11.90;;;8.90;;
74100;SDS011;62462;52.530;21.682;2022-10-16T09:57:22;15.68;;;9.63;;
74100;SDS011;62462;52.530;21.682;2022-10-16T09:59:48;12.98;;;8.90;;
74100;SDS011;62462;52.530;21.682;2022-10-16T10:02:29;11.68;;;9.05;;
74100;SDS011;62462;52.530;21.682;2022-10-16T10:04:58;15.07;;;9.40;;
74100;SDS011;62462;52.530;21.682;2022-10-16T10:07:28;14.27;;;8.73;;
74100;SDS011;62462;52.530;21.682;2022-10-16T10:10:00;13.32;;;8.90;;
74100;SDS011;62462;52.530;21.682;2022-10-16T10:12:29;13.23;;;8.77;;
74100;SDS011;62462;52.530;21.682;2022-10-16T10:15:04;16.23;;;9.25;;
74100;SDS011;62462;52.530;21.682;2022-10-16T10:17:45;13.85;;;8.70;;
74100;SDS011;62462;52.530;21.682;2022-10-16T10:20:23;14.63;;;8.60;;
74100;SDS011;62462;52.530;21.682;2022-10-16T10:22:52;13.05;;;8.82;;
74100;SDS011;62462;52.530;21.682;2022-10-16T10:33:31;12.13;;;8.23;;
74100;SDS011;62462;52.530;21.682;2022-10-16T10:44:16;10.85;;;7.40;;
74100;SDS011;62462;52.530;21.682;2022-10-16T10:47:07;12.95;;;7.90;;
74100;SDS011;62462;52.530;21.682;2022-10-16T10:52:51;16.58;;;8.38;;
74100;SDS011;62462;52.530;21.682;2022-10-16T10:55:33;10.98;;;7.15;;
74100;SDS011;62462;52.530;21.682;2022-10-16T10:58:57;10.68;;;8.38;;
74100;SDS011;62462;52.530;21.682;2022-10-16T11:07:09;9.85;;;8.05;;
74100;SDS011;62462;52.530;21.682;2022-10-16T11:09:48;12.10;;;8.27;;
74100;SDS011;62462;52.530;21.682;2022-10-16T11:12:19;12.65;;;8.38;;
74100;SDS011;62462;52.530;21.682;2022-10-16T11:14:56;15.02;;;8.35;;
74100;SDS011;62462;52.530;21.682;2022-10-16T11:17:33;12.07;;;8.02;;
74100;SDS011;62462;52.530;21.682;2022-10-16T11:22:44;15.27;;;8.02;;
74100;SDS011;62462;52.530;21.682;2022-10-16T11:25:27;11.85;;;7.97;;
74100;SDS011;62462;52.530;21.682;2022-10-16T11:30:31;10.70;;;7.57;;
74100;SDS011;62462;52.530;21.682;2022-10-16T11:36:08;11.70;;;8.45;;
74100;SDS011;62462;52.530;21.682;2022-10-16T11:46:31;12.15;;;9.02;;
74100;SDS011;62462;52.530;21.682;2022-10-16T11:49:18;13.05;;;7.85;;
74100;SDS011;62462;52.530;21.682;2022-10-16T11:51:54;11.77;;;7.88;;
74100;SDS011;62462;52.530;21.682;2022-10-16T11:57:12;10.45;;;7.50;;
74100;SDS011;62462;52.530;21.682;2022-10-16T11:59:47;12.13;;;7.43;;
74100;SDS011;62462;52.530;21.682;2022-10-16T12:10:36;13.48;;;8.50;;
74100;SDS011;62462;52.530;21.682;2022-10-16T12:13:04;11.80;;;8.07;;
74100;SDS011;62462;52.530;21.682;2022-10-16T12:15:50;11.90;;;8.10;;
74100;SDS011;62462;52.530;21.682;2022-10-16T12:18:22;11.90;;;8.00;;
74100;SDS011;62462;52.530;21.682;2022-10-16T12:20:58;13.02;;;7.90;;
74100;SDS011;62462;52.530;21.682;2022-10-16T12:23:30;11.02;;;7.82;;
74100;SDS011;62462;52.530;21.682;2022-10-16T12:26:00;11.98;;;7.80;;
74100;SDS011;62462;52.530;21.682;2022-10-16T12:28:28;12.57;;;8.40;;
74100;SDS011;62462;52.530;21.682;2022-10-16T12:30:57;10.40;;;7.70;;
74100;SDS011;62462;52.530;21.682;2022-10-16T12:33:53;9.88;;;7.68;;
74100;SDS011;62462;52.530;21.682;2022-10-16T12:38:53;14.93;;;8.40;;
74100;SDS011;62462;52.530;21.682;2022-10-16T12:43:59;11.80;;;8.23;;
74100;SDS011;62462;52.530;21.682;2022-10-16T12:49:04;11.63;;;8.55;;
74100;SDS011;62462;52.530;21.682;2022-10-16T12:51:46;13.98;;;8.55;;
74100;SDS011;62462;52.530;21.682;2022-10-16T12:59:25;12.45;;;7.30;;
74100;SDS011;62462;52.530;21.682;2022-10-16T13:05:30;10.57;;;7.88;;
74100;SDS011;62462;52.530;21.682;2022-10-16T13:21:18;12.60;;;8.50;;
74100;SDS011;62462;52.530;21.682;2022-10-16T13:24:01;9.18;;;7.57;;
74100;SDS011;62462;52.530;21.682;2022-10-16T13:26:41;10.75;;;7.88;;
74100;SDS011;62462;52.530;21.682;2022-10-16T13:29:31;10.57;;;8.15;;
74100;SDS011;62462;52.530;21.682;2022-10-16T13:31:58;10.23;;;8.18;;
74100;SDS011;62462;52.530;21.682;2022-10-16T13:34:26;11.25;;;7.85;;
74100;SDS011;62462;52.530;21.682;2022-10-16T13:36:53;10.27;;;8.13;;
74100;SDS011;62462;52.530;21.682;2022-10-16T13:44:38;13.75;;;9.70;;
74100;SDS011;62462;52.530;21.682;2022-10-16T13:47:13;12.25;;;8.88;;
74100;SDS011;62462;52.530;21.682;2022-10-16T13:50:00;14.88;;;7.97;;
74100;SDS011;62462;52.530;21.682;2022-10-16T13:52:30;10.75;;;7.90;;
74100;SDS011;62462;52.530;21.682;2022-10-16T13:54:56;10.30;;;7.32;;
74100;SDS011;62462;52.530;21.682;2022-10-16T13:57:23;8.43;;;6.63;;
74100;SDS011;62462;52.530;21.682;2022-10-16T13:59:49;11.27;;;7.60;;
74100;SDS011;62462;52.530;21.682;2022-10-16T14:02:18;13.98;;;7.38;;
74100;SDS011;62462;52.530;21.682;2022-10-16T14:04:51;12.82;;;7.63;;
74100;SDS011;62462;52.530;21.682;2022-10-16T14:07:23;8.77;;;7.53;;
74100;SDS011;62462;52.530;21.682;2022-10-16T14:09:51;9.02;;;7.47;;
74100;SDS011;62462;52.530;21.682;2022-10-16T14:12:17;10.82;;;7.88;;
74100;SDS011;62462;52.530;21.682;2022-10-16T14:14:44;12.18;;;7.93;;
74100;SDS011;62462;52.530;21.682;2022-10-16T14:17:15;8.52;;;7.13;;
74100;SDS011;62462;52.530;21.682;2022-10-16T14:19:48;9.18;;;7.32;;
74100;SDS011;62462;52.530;21.682;2022-10-16T14:24:49;9.73;;;6.97;;
74100;SDS011;62462;52.530;21.682;2022-10-16T14:27:31;12.02;;;8.30;;
74100;SDS011;62462;52.530;21.682;2022-10-16T14:32:51;10.82;;;7.70;;
74100;SDS011;62462;52.530;21.682;2022-10-16T14:35:32;10.07;;;7.40;;
74100;SDS011;62462;52.530;21.682;2022-10-16T14:38:04;9.25;;;7.03;;
74100;SDS011;62462;52.530;21.682;2022-10-16T14:40:45;8.15;;;6.57;;
74100;SDS011;62462;52.530;21.682;2022-10-16T14:43:22;9.48;;;7.20;;
74100;SDS011;62462;52.530;21.682;2022-10-16T14:45:59;10.20;;;7.45;;
74100;SDS011;62462;52.530;21.682;2022-10-16T14:48:26;9.30;;;6.95;;
74100;SDS011;62462;52.530;21.682;2022-10-16T14:50:52;8.75;;;6.50;;
74100;SDS011;62462;52.530;21.682;2022-10-16T14:53:18;11.15;;;7.45;;
74100;SDS011;62462;52.530;21.682;2022-10-16T14:55:43;10.45;;;7.68;;
74100;SDS011;62462;52.530;21.682;2022-10-16T14:58:28;10.48;;;7.45;;
74100;SDS011;62462;52.530;21.682;2022-10-16T15:03:21;10.73;;;8.35;;
74100;SDS011;62462;52.530;21.682;2022-10-16T15:05:46;10.77;;;7.72;;
74100;SDS011;62462;52.530;21.682;2022-10-16T15:08:12;11.10;;;7.70;;
74100;SDS011;62462;52.530;21.682;2022-10-16T15:10:40;11.95;;;7.55;;
74100;SDS011;62462;52.530;21.682;2022-10-16T15:13:11;9.90;;;7.00;;
74100;SDS011;62462;52.530;21.682;2022-10-16T15:15:42;9.82;;;7.20;;
74100;SDS011;62462;52.530;21.682;2022-10-16T15:18:12;9.77;;;6.85;;
74100;SDS011;62462;52.530;21.682;2022-10-16T15:20:40;8.85;;;7.05;;
74100;SDS011;62462;52.530;21.682;2022-10-16T15:23:09;10.30;;;6.75;;
74100;SDS011;62462;52.530;21.682;2022-10-16T15:28:12;14.70;;;8.70;;
74100;SDS011;62462;52.530;21.682;2022-10-16T15:30:40;14.93;;;10.63;;
74100;SDS011;62462;52.530;21.682;2022-10-16T15:33:10;16.13;;;11.15;;
74100;SDS011;62462;52.530;21.682;2022-10-16T15:35:39;16.80;;;10.97;;
74100;SDS011;62462;52.530;21.682;2022-10-16T15:38:04;13.57;;;9.85;;
74100;SDS011;62462;52.530;21.682;2022-10-16T15:40:30;12.40;;;9.05;;
74100;SDS011;62462;52.530;21.682;2022-10-16T15:42:56;11.38;;;8.30;;
74100;SDS011;62462;52.530;21.682;2022-10-16T15:45:22;12.20;;;8.10;;
74100;SDS011;62462;52.530;21.682;2022-10-16T15:47:47;12.13;;;8.15;;
74100;SDS011;62462;52.530;21.682;2022-10-16T15:50:14;9.60;;;7.00;;
74100;SDS011;62462;52.530;21.682;2022-10-16T15:52:40;9.48;;;7.30;;
74100;SDS011;62462;52.530;21.682;2022-10-16T15:55:07;9.52;;;7.38;;
74100;SDS011;62462;52.530;21.682;2022-10-16T15:57:35;12.30;;;7.60;;
74100;SDS011;62462;52.530;21.682;2022-10-16T16:00:04;12.40;;;7.72;;
74100;SDS011;62462;52.530;21.682;2022-10-16T16:02:31;8.82;;;7.32;;
74100;SDS011;62462;52.530;21.682;2022-10-16T16:04:57;10.00;;;7.10;;
74100;SDS011;62462;52.530;21.682;2022-10-16T16:07:23;9.35;;;7.43;;
74100;SDS011;62462;52.530;21.682;2022-10-16T16:09:49;11.48;;;7.25;;
74100;SDS011;62462;52.530;21.682;2022-10-16T16:12:15;12.23;;;7.95;;
74100;SDS011;62462;52.530;21.682;2022-10-16T16:14:40;12.13;;;7.43;;
74100;SDS011;62462;52.530;21.682;2022-10-16T16:17:07;10.57;;;7.55;;
74100;SDS011;62462;52.530;21.682;2022-10-16T16:19:33;9.52;;;6.93;;
74100;SDS011;62462;52.530;21.682;2022-10-16T16:21:58;12.50;;;7.85;;
74100;SDS011;62462;52.530;21.682;2022-10-16T16:24:24;12.38;;;8.02;;
74100;SDS011;62462;52.530;21.682;2022-10-16T16:26:50;10.57;;;7.47;;
74100;SDS011;62462;52.530;21.682;2022-10-16T16:29:15;12.20;;;7.70;;
74100;SDS011;62462;52.530;21.682;2022-10-16T16:31:41;12.15;;;7.15;;
74100;SDS011;62462;52.530;21.682;2022-10-16T16:34:07;13.07;;;7.35;;
74100;SDS011;62462;52.530;21.682;2022-10-16T16:36:34;12.02;;;7.97;;
74100;SDS011;62462;52.530;21.682;2022-10-16T16:39:00;12.25;;;8.20;;
74100;SDS011;62462;52.530;21.682;2022-10-16T16:41:27;10.98;;;8.02;;
74100;SDS011;62462;52.530;21.682;2022-10-16T16:43:55;10.93;;;8.40;;
74100;SDS011;62462;52.530;21.682;2022-10-16T16:46:25;11.63;;;7.80;;
74100;SDS011;62462;52.530;21.682;2022-10-16T16:48:51;10.65;;;8.10;;
74100;SDS011;62462;52.530;21.682;2022-10-16T16:51:20;11.43;;;7.85;;
74100;SDS011;62462;52.530;21.682;2022-10-16T16:53:47;11.77;;;8.20;;
74100;SDS011;62462;52.530;21.682;2022-10-16T16:56:14;12.40;;;7.88;;
74100;SDS011;62462;52.530;21.682;2022-10-16T16:58:40;13.05;;;8.50;;
74100;SDS011;62462;52.530;21.682;2022-10-16T17:01:08;11.57;;;7.80;;